createdAt,value
2022-10-24T00:01:17.271Z,5.10
2022-10-24T00:03:43.941Z,5.63
2022-10-24T00:06:12.398Z,2.90
2022-10-24T00:08:40.580Z,4.60
2022-10-24T00:11:12.843Z,6.10
2022-10-24T00:13:40.286Z,11.70
2022-10-24T00:16:07.573Z,8.53
2022-10-24T00:18:34.550Z,14.03
2022-10-24T00:21:01.239Z,8.83
2022-10-24T00:23:28.054Z,8.30
2022-10-24T00:25:54.816Z,5.80
2022-10-24T00:28:21.588Z,3.90
2022-10-24T00:30:52.757Z,4.90
2022-10-24T00:33:19.775Z,7.63
2022-10-24T00:35:46.895Z,6.90
2022-10-24T00:38:13.631Z,6.93
2022-10-24T00:40:40.253Z,5.40
2022-10-24T00:43:27.350Z,5.97
2022-10-24T00:46:01.655Z,4.60
2022-10-24T00:48:32.034Z,3.43
2022-10-24T00:51:27.134Z,8.33
2022-10-24T00:56:30.304Z,11.47
2022-10-24T00:58:58.213Z,3.13
2022-10-24T01:01:26.405Z,6.50
2022-10-24T01:03:53.056Z,4.87
2022-10-24T01:06:38.519Z,4.27
2022-10-24T01:09:14.279Z,4.07
2022-10-24T01:12:06.437Z,6.83
2022-10-24T01:14:49.978Z,3.37
2022-10-24T01:17:25.628Z,5.10
2022-10-24T01:20:20.045Z,8.67
2022-10-24T01:23:08.600Z,6.23
2022-10-24T01:25:50.437Z,4.60
2022-10-24T01:28:38.893Z,10.53
2022-10-24T01:31:11.756Z,9.90
2022-10-24T01:33:45.662Z,4.73
2022-10-24T01:36:30.740Z,5.37
2022-10-24T01:39:02.209Z,4.43
2022-10-24T01:41:31.171Z,7.40
2022-10-24T01:44:14.800Z,5.47
2022-10-24T01:46:47.081Z,4.80
2022-10-24T01:49:17.574Z,3.70
2022-10-24T01:51:47.313Z,9.00
2022-10-24T01:54:15.114Z,5.40
2022-10-24T01:56:41.755Z,5.07
2022-10-24T01:59:29.667Z,3.23
2022-10-24T02:02:11.965Z,7.13
2022-10-24T02:04:44.810Z,6.50
2022-10-24T02:07:13.536Z,3.23
2022-10-24T02:09:43.728Z,2.00
2022-10-24T02:12:14.553Z,7.40
2022-10-24T02:14:51.460Z,3.80
2022-10-24T02:17:19.098Z,4.30
2022-10-24T02:19:46.791Z,8.80
2022-10-24T02:22:37.771Z,6.43
2022-10-24T02:25:24.508Z,3.60
2022-10-24T02:27:59.971Z,3.50
2022-10-24T02:30:30.644Z,4.07
2022-10-24T02:32:59.841Z,5.07
2022-10-24T02:35:30.039Z,4.70
2022-10-24T02:38:06.205Z,8.80
2022-10-24T02:40:34.493Z,3.93
2022-10-24T02:43:04.315Z,10.20
2022-10-24T02:45:32.112Z,4.43
2022-10-24T02:48:02.716Z,3.83
2022-10-24T02:50:31.945Z,4.50
2022-10-24T02:52:58.713Z,8.80
2022-10-24T02:55:25.672Z,6.30
2022-10-24T02:57:52.269Z,4.67
2022-10-24T03:00:18.957Z,4.47
2022-10-24T03:02:45.897Z,4.47
2022-10-24T03:05:12.811Z,6.20
2022-10-24T03:07:39.572Z,4.50
2022-10-24T03:10:06.487Z,5.40
2022-10-24T03:12:33.132Z,5.13
2022-10-24T03:14:59.719Z,3.03
2022-10-24T03:17:26.299Z,5.03
2022-10-24T03:19:52.911Z,3.83
2022-10-24T03:22:19.521Z,7.50
2022-10-24T03:24:55.172Z,2.90
2022-10-24T03:27:22.791Z,4.83
2022-10-24T03:29:49.527Z,2.37
2022-10-24T03:32:16.250Z,3.83
2022-10-24T03:34:43.031Z,6.20
2022-10-24T03:37:09.658Z,5.47
2022-10-24T03:39:36.262Z,7.27
2022-10-24T03:42:03.026Z,3.10
2022-10-24T03:44:29.706Z,9.00
2022-10-24T03:46:56.327Z,7.40
2022-10-24T03:49:22.935Z,8.93
2022-10-24T03:51:49.498Z,4.93
2022-10-24T03:54:16.309Z,3.70
2022-10-24T03:56:44.569Z,3.87
2022-10-24T03:59:11.359Z,8.90
2022-10-24T04:01:38.044Z,3.60
2022-10-24T04:04:04.884Z,3.30
2022-10-24T04:06:34.099Z,3.47
2022-10-24T04:09:03.787Z,4.70
2022-10-24T04:11:30.776Z,6.23
2022-10-24T04:13:58.171Z,3.23
2022-10-24T04:16:24.778Z,5.90
2022-10-24T04:18:51.526Z,4.23
2022-10-24T04:21:21.561Z,6.07
2022-10-24T04:23:49.012Z,5.30
2022-10-24T04:26:16.482Z,3.50
2022-10-24T04:28:43.842Z,6.03
2022-10-24T04:31:10.421Z,9.87
2022-10-24T04:33:37.057Z,10.17
2022-10-24T04:36:03.981Z,3.53
2022-10-24T04:38:33.463Z,4.47
2022-10-24T04:41:00.681Z,2.97
2022-10-24T04:43:27.387Z,5.07
2022-10-24T04:45:54.067Z,4.07
2022-10-24T04:48:27.635Z,3.07
2022-10-24T04:50:54.851Z,4.97
2022-10-24T04:53:21.622Z,3.90
2022-10-24T04:55:48.224Z,4.20
2022-10-24T04:58:14.924Z,3.50
2022-10-24T05:00:46.498Z,5.17
2022-10-24T05:03:13.552Z,7.17
2022-10-24T05:05:40.436Z,8.67
2022-10-24T05:08:07.111Z,5.10
2022-10-24T05:10:55.090Z,5.83
2022-10-24T05:13:25.516Z,7.13
2022-10-24T05:15:52.138Z,7.07
2022-10-24T05:18:18.762Z,7.97
2022-10-24T05:20:45.392Z,5.57
2022-10-24T05:23:12.057Z,4.30
2022-10-24T05:25:39.214Z,5.17
2022-10-24T05:28:05.791Z,3.63
2022-10-24T05:30:32.408Z,6.13
2022-10-24T05:32:59.775Z,4.20
2022-10-24T05:35:26.436Z,3.30
2022-10-24T05:37:53.040Z,5.00
2022-10-24T05:40:19.813Z,8.23
2022-10-24T05:42:46.868Z,3.40
2022-10-24T05:45:13.701Z,9.43
2022-10-24T05:47:40.329Z,7.43
2022-10-24T05:50:07.541Z,7.97
2022-10-24T05:52:36.428Z,4.60
2022-10-24T05:55:08.252Z,6.13
2022-10-24T05:57:37.008Z,3.37
2022-10-24T06:00:18.460Z,6.27
2022-10-24T06:05:14.190Z,8.03
2022-10-24T06:07:42.128Z,5.70
2022-10-24T06:10:09.597Z,7.17
2022-10-24T06:12:36.466Z,7.90
2022-10-24T06:15:05.336Z,4.80
2022-10-24T06:17:32.077Z,6.80
2022-10-24T06:19:58.753Z,6.17
2022-10-24T06:22:27.692Z,4.73
2022-10-24T06:24:54.289Z,8.00
2022-10-24T06:27:20.896Z,6.80
2022-10-24T06:29:47.584Z,6.50
2022-10-24T06:32:14.251Z,14.80
2022-10-24T06:34:40.874Z,5.77
2022-10-24T06:37:07.608Z,8.77
2022-10-24T06:39:34.214Z,6.20
2022-10-24T06:42:01.768Z,4.67
2022-10-24T06:44:28.527Z,4.90
2022-10-24T06:46:55.317Z,7.70
2022-10-24T06:49:22.011Z,4.83
2022-10-24T06:51:48.852Z,5.93
2022-10-24T06:54:16.755Z,4.73
2022-10-24T06:56:43.473Z,4.67
2022-10-24T06:59:11.371Z,7.03
2022-10-24T07:01:38.109Z,9.27
2022-10-24T07:04:05.422Z,8.27
2022-10-24T07:06:33.170Z,6.13
2022-10-24T07:09:01.296Z,7.80
2022-10-24T07:11:28.815Z,9.00
2022-10-24T07:13:59.560Z,7.73
2022-10-24T07:16:28.642Z,8.03
2022-10-24T07:18:55.317Z,8.27
2022-10-24T07:21:25.790Z,6.97
2022-10-24T07:23:53.225Z,4.70
2022-10-24T07:26:21.482Z,9.77
2022-10-24T07:28:54.650Z,6.70
2022-10-24T07:31:23.542Z,6.73
2022-10-24T07:33:51.345Z,9.47
2022-10-24T07:36:20.387Z,9.13
2022-10-24T07:38:48.214Z,6.00
2022-10-24T07:41:15.126Z,11.87
2022-10-24T07:43:41.971Z,7.17
2022-10-24T07:46:16.556Z,4.83
2022-10-24T07:48:43.355Z,8.57
2022-10-24T07:51:12.513Z,6.93
2022-10-24T07:53:39.800Z,11.60
2022-10-24T07:56:09.468Z,7.67
2022-10-24T07:58:37.202Z,5.53
2022-10-24T08:01:05.862Z,7.47
2022-10-24T08:03:32.583Z,7.13
2022-10-24T08:05:59.847Z,9.30
2022-10-24T08:08:42.027Z,7.60
2022-10-24T08:11:13.505Z,11.57
2022-10-24T08:13:40.592Z,9.33
2022-10-24T08:16:09.512Z,6.27
2022-10-24T08:18:39.564Z,14.20
2022-10-24T08:21:09.123Z,7.07
2022-10-24T08:23:37.993Z,11.40
2022-10-24T08:26:09.156Z,6.40
2022-10-24T08:28:36.245Z,7.60
2022-10-24T08:31:08.640Z,6.50
2022-10-24T08:33:35.598Z,4.90
2022-10-24T08:36:05.948Z,7.43
2022-10-24T08:38:32.653Z,3.60
2022-10-24T08:41:00.540Z,2.83
2022-10-24T08:43:27.340Z,5.77
2022-10-24T08:46:07.692Z,2.57
2022-10-24T08:48:48.217Z,8.80
2022-10-24T08:51:36.274Z,2.67
2022-10-24T08:54:04.535Z,6.03
2022-10-24T08:56:33.439Z,4.90
2022-10-24T08:59:01.738Z,1.97
2022-10-24T09:01:51.884Z,4.03
2022-10-24T09:04:21.856Z,7.30
2022-10-24T09:06:52.820Z,2.60
2022-10-24T09:09:26.428Z,3.83
2022-10-24T09:12:04.100Z,3.57
2022-10-24T09:14:37.169Z,5.30
2022-10-24T09:17:21.243Z,4.20
2022-10-24T09:20:04.920Z,5.97
2022-10-24T09:22:34.757Z,4.33
2022-10-24T09:25:04.858Z,6.27
2022-10-24T09:27:38.162Z,7.90
2022-10-24T09:30:07.283Z,6.17
2022-10-24T09:32:36.404Z,4.13
2022-10-24T09:35:16.810Z,3.93
2022-10-24T09:37:48.975Z,3.80
2022-10-24T09:40:31.509Z,6.47
2022-10-24T09:43:16.245Z,10.47
2022-10-24T09:45:45.856Z,7.30
2022-10-24T09:48:46.324Z,4.50
2022-10-24T09:51:36.125Z,9.87
2022-10-24T09:54:06.534Z,7.60
2022-10-24T09:56:40.294Z,6.27
2022-10-24T09:59:35.118Z,5.83
2022-10-24T10:02:07.623Z,4.53
2022-10-24T10:04:34.356Z,4.80
2022-10-24T10:07:09.951Z,3.60
2022-10-24T10:09:42.281Z,5.60
2022-10-24T10:12:31.780Z,3.80
2022-10-24T10:14:59.624Z,3.80
2022-10-24T10:17:28.755Z,3.93
2022-10-24T10:19:55.995Z,4.23
2022-10-24T10:22:32.611Z,2.57
2022-10-24T10:25:00.511Z,5.07
2022-10-24T10:27:27.089Z,6.50
2022-10-24T10:30:12.057Z,7.63
2022-10-24T10:32:44.161Z,4.90
2022-10-24T10:35:20.032Z,6.90
2022-10-24T10:38:11.700Z,2.40
2022-10-24T10:40:44.960Z,3.30
2022-10-24T10:43:33.469Z,8.90
2022-10-24T10:46:13.717Z,4.57
2022-10-24T10:49:18.026Z,3.63
2022-10-24T10:51:58.022Z,4.27
2022-10-24T10:54:52.357Z,5.33
2022-10-24T10:57:28.830Z,8.37
2022-10-24T11:00:02.873Z,6.03
2022-10-24T11:02:41.571Z,8.07
2022-10-24T11:05:23.599Z,3.63
2022-10-24T11:08:08.635Z,2.57
2022-10-24T11:10:42.835Z,2.50
2022-10-24T11:13:18.153Z,2.40
2022-10-24T11:15:48.813Z,3.30
2022-10-24T11:18:23.023Z,2.33
2022-10-24T11:20:57.757Z,4.07
2022-10-24T11:23:36.696Z,3.97
2022-10-24T11:26:06.260Z,6.50
2022-10-24T11:28:42.685Z,3.17
2022-10-24T11:31:26.229Z,5.50
2022-10-24T11:34:22.189Z,2.43
2022-10-24T11:37:12.853Z,4.17
2022-10-24T11:39:46.009Z,3.03
2022-10-24T11:42:21.229Z,3.07
2022-10-24T11:44:55.236Z,3.00
2022-10-24T11:47:24.986Z,5.10
2022-10-24T11:50:13.295Z,2.77
2022-10-24T11:52:45.034Z,4.17
2022-10-24T11:55:17.768Z,4.40
2022-10-24T11:57:48.590Z,3.80
2022-10-24T12:00:23.342Z,7.03
2022-10-24T12:03:08.748Z,3.60
2022-10-24T12:06:28.760Z,3.00
2022-10-24T12:09:21.659Z,6.90
2022-10-24T12:12:10.292Z,4.70
2022-10-24T12:14:50.940Z,2.43
2022-10-24T12:17:43.059Z,5.67
2022-10-24T12:20:15.219Z,2.27
2022-10-24T12:22:44.129Z,3.37
2022-10-24T12:25:36.494Z,4.13
2022-10-24T12:28:18.742Z,4.63
2022-10-24T12:31:10.139Z,4.40
2022-10-24T12:33:36.991Z,2.97
2022-10-24T12:36:03.852Z,4.37
2022-10-24T12:38:30.393Z,3.10
2022-10-24T12:41:06.895Z,4.60
2022-10-24T12:43:34.922Z,5.90
2022-10-24T12:46:21.648Z,10.43
2022-10-24T12:48:59.130Z,7.53
2022-10-24T12:51:37.762Z,6.13
2022-10-24T12:54:04.396Z,3.70
2022-10-24T12:56:33.012Z,3.80
2022-10-24T12:59:02.699Z,4.33
2022-10-24T13:01:37.634Z,4.53
2022-10-24T13:04:40.161Z,3.60
2022-10-24T13:07:31.589Z,4.13
2022-10-24T13:10:07.938Z,4.73
2022-10-24T13:12:56.861Z,6.40
2022-10-24T13:15:45.334Z,4.53
2022-10-24T13:18:50.764Z,6.17
2022-10-24T13:21:45.612Z,6.17
2022-10-24T13:24:24.867Z,18.10
2022-10-24T13:26:55.859Z,23.67
2022-10-24T13:29:28.623Z,12.03
2022-10-24T13:32:18.626Z,14.23
2022-10-24T13:34:50.628Z,19.13
2022-10-24T13:37:25.520Z,11.93
2022-10-24T13:40:08.892Z,11.97
2022-10-24T13:42:55.813Z,13.93
2022-10-24T13:45:41.278Z,15.70
2022-10-24T13:48:17.827Z,17.90
2022-10-24T13:50:56.126Z,23.23
2022-10-24T13:53:35.707Z,14.00
2022-10-24T13:56:10.445Z,11.00
2022-10-24T13:58:41.011Z,9.60
2022-10-24T14:01:13.574Z,8.63
2022-10-24T14:03:44.295Z,5.77
2022-10-24T14:06:11.785Z,7.73
2022-10-24T14:08:47.103Z,6.40
2022-10-24T14:11:23.811Z,6.93
2022-10-24T14:13:53.096Z,8.10
2022-10-24T14:16:27.070Z,6.90
2022-10-24T14:19:25.605Z,7.97
2022-10-24T14:21:56.542Z,6.30
2022-10-24T14:24:23.336Z,7.77
2022-10-24T14:26:53.224Z,6.20
2022-10-24T14:29:31.324Z,7.30
2022-10-24T14:32:04.956Z,5.90
2022-10-24T14:34:36.094Z,9.23
2022-10-24T14:37:06.679Z,6.00
2022-10-24T14:40:08.336Z,6.57
2022-10-24T14:42:51.659Z,12.67
2022-10-24T14:45:30.020Z,7.57
2022-10-24T14:48:00.604Z,5.43
2022-10-24T14:50:43.162Z,8.67
2022-10-24T14:53:28.808Z,10.10
2022-10-24T14:55:58.974Z,14.00
2022-10-24T14:58:29.768Z,27.20
2022-10-24T15:00:57.865Z,10.27
2022-10-24T15:03:28.706Z,6.47
2022-10-24T15:05:55.457Z,4.50
2022-10-24T15:08:33.887Z,9.23
2022-10-24T15:11:25.128Z,10.10
2022-10-24T15:14:06.323Z,10.90
2022-10-24T15:16:39.602Z,5.97
2022-10-24T15:19:13.932Z,10.47
2022-10-24T15:21:44.631Z,8.33
2022-10-24T15:24:22.036Z,6.10
2022-10-24T15:26:48.868Z,8.07
2022-10-24T15:29:19.057Z,10.60
2022-10-24T15:31:48.251Z,6.77
2022-10-24T15:34:16.785Z,12.53
2022-10-24T15:37:07.704Z,4.20
2022-10-24T15:39:34.439Z,4.30
2022-10-24T15:42:01.201Z,8.27
2022-10-24T15:44:30.148Z,4.63
2022-10-24T15:46:56.991Z,5.83
2022-10-24T15:49:23.697Z,13.57
2022-10-24T15:51:51.021Z,14.83
2022-10-24T15:54:20.114Z,7.93
2022-10-24T15:56:47.118Z,16.17
2022-10-24T15:59:13.854Z,24.00
2022-10-24T16:01:49.476Z,26.50
2022-10-24T16:04:16.960Z,14.03
2022-10-24T16:06:43.683Z,96.97
2022-10-24T16:09:15.861Z,92.80
2022-10-24T16:11:42.548Z,34.20
2022-10-24T16:14:20.780Z,12.50
2022-10-24T16:16:48.022Z,8.60
2022-10-24T16:19:14.764Z,8.00
2022-10-24T16:21:41.897Z,11.37
2022-10-24T16:24:10.331Z,9.70
2022-10-24T16:26:37.357Z,5.40
2022-10-24T16:29:05.006Z,3.20
2022-10-24T16:31:31.852Z,3.07
2022-10-24T16:33:59.203Z,3.70
2022-10-24T16:36:26.275Z,6.87
2022-10-24T16:38:53.315Z,4.43
2022-10-24T16:41:22.472Z,6.53
2022-10-24T16:43:50.185Z,2.83
2022-10-24T16:46:21.804Z,5.03
2022-10-24T16:48:49.430Z,4.70
2022-10-24T16:51:22.387Z,6.07
2022-10-24T16:53:49.341Z,4.07
2022-10-24T16:56:16.314Z,5.47
2022-10-24T16:58:43.303Z,7.97
2022-10-24T17:01:12.427Z,3.50
2022-10-24T17:03:40.295Z,7.00
2022-10-24T17:06:08.035Z,5.30
2022-10-24T17:08:34.884Z,3.60
2022-10-24T17:11:01.913Z,2.70
2022-10-24T17:13:29.263Z,5.60
2022-10-24T17:15:56.773Z,6.10
2022-10-24T17:18:25.478Z,6.20
2022-10-24T17:20:58.906Z,3.20
2022-10-24T17:23:26.805Z,4.10
2022-10-24T17:25:54.840Z,6.03
2022-10-24T17:28:21.793Z,9.87
2022-10-24T17:30:48.577Z,6.00
2022-10-24T17:33:15.318Z,5.57
2022-10-24T17:35:47.447Z,5.93
2022-10-24T17:38:13.997Z,7.37
2022-10-24T17:40:46.753Z,5.90
2022-10-24T17:43:20.436Z,3.50
2022-10-24T17:45:47.517Z,4.67
2022-10-24T17:48:14.733Z,10.03
2022-10-24T17:50:41.791Z,8.63
2022-10-24T17:53:11.827Z,10.77
2022-10-24T17:55:46.106Z,9.50
2022-10-24T17:58:14.619Z,4.53
2022-10-24T18:00:41.578Z,6.53
2022-10-24T18:03:08.712Z,6.63
2022-10-24T18:05:38.219Z,12.23
2022-10-24T18:08:10.480Z,6.53
2022-10-24T18:10:39.022Z,9.10
2022-10-24T18:13:06.788Z,4.53
2022-10-24T18:15:33.977Z,5.93
2022-10-24T18:22:01.786Z,3.80
2022-10-24T18:24:28.464Z,4.00
2022-10-24T18:26:55.112Z,7.13
2022-10-24T18:29:21.783Z,6.90
2022-10-24T18:31:51.739Z,5.50
2022-10-24T18:34:18.501Z,5.20
2022-10-24T18:36:45.399Z,3.80
2022-10-24T18:39:13.304Z,6.47
2022-10-24T18:41:47.743Z,6.47
2022-10-24T18:44:30.032Z,14.63
2022-10-24T18:47:01.296Z,14.40
2022-10-24T18:49:29.999Z,6.67
2022-10-24T18:52:15.765Z,4.90
2022-10-24T18:54:52.338Z,4.13
2022-10-24T18:57:31.024Z,5.20
2022-10-24T18:59:58.632Z,8.07
2022-10-24T19:02:38.850Z,3.50
2022-10-24T19:05:24.990Z,4.33
2022-10-24T19:07:52.355Z,4.63
2022-10-24T19:10:25.864Z,7.87
2022-10-24T19:12:54.438Z,8.13
2022-10-24T19:15:22.114Z,7.37
2022-10-24T19:17:50.901Z,4.47
2022-10-24T19:20:22.337Z,3.83
2022-10-24T19:22:49.965Z,6.93
2022-10-24T19:25:17.295Z,5.57
2022-10-24T19:27:44.549Z,6.97
2022-10-24T19:30:12.079Z,7.07
2022-10-24T19:32:38.773Z,5.20
2022-10-24T19:35:05.838Z,4.40
2022-10-24T19:37:32.628Z,4.33
2022-10-24T19:39:59.302Z,5.50
2022-10-24T19:42:25.925Z,3.77
2022-10-24T19:44:56.137Z,4.47
2022-10-24T19:47:22.844Z,5.10
2022-10-24T19:49:49.836Z,4.23
2022-10-24T19:52:16.831Z,5.50
2022-10-24T19:54:44.021Z,6.73
2022-10-24T19:57:11.738Z,4.80
2022-10-24T19:59:38.550Z,4.77
2022-10-24T20:02:05.850Z,5.10
2022-10-24T20:04:32.525Z,3.30
2022-10-24T20:06:59.197Z,4.90
2022-10-24T20:09:25.839Z,4.30
2022-10-24T20:11:52.485Z,3.97
2022-10-24T20:14:19.447Z,4.03
2022-10-24T20:16:46.063Z,4.03
2022-10-24T20:19:12.726Z,5.80
2022-10-24T20:21:42.393Z,3.80
2022-10-24T20:24:09.155Z,3.60
2022-10-24T20:26:35.869Z,4.67
2022-10-24T20:29:02.774Z,9.80
2022-10-24T20:31:39.360Z,6.30
2022-10-24T20:34:09.846Z,5.87
2022-10-24T20:36:38.540Z,6.70
2022-10-24T20:39:07.354Z,4.70
2022-10-24T20:41:34.299Z,7.60
2022-10-24T20:44:01.342Z,4.27
2022-10-24T20:46:28.006Z,5.50
2022-10-24T20:48:54.701Z,5.50
2022-10-24T20:51:21.702Z,4.33
2022-10-24T20:53:48.713Z,5.67
2022-10-24T20:56:18.070Z,5.90
2022-10-24T20:58:45.722Z,6.50
2022-10-24T21:01:15.304Z,9.30
2022-10-24T21:03:43.318Z,4.23
2022-10-24T21:06:20.154Z,6.53
2022-10-24T21:08:48.596Z,3.80
2022-10-24T21:11:24.721Z,2.70
2022-10-24T21:14:00.045Z,3.87
2022-10-24T21:16:28.070Z,6.90
2022-10-24T21:18:55.104Z,3.27
2022-10-24T21:21:22.756Z,3.50
2022-10-24T21:24:00.930Z,6.20
2022-10-24T21:26:31.082Z,3.60
2022-10-24T21:29:08.533Z,3.90
2022-10-24T21:31:44.374Z,2.97
2022-10-24T21:34:11.184Z,4.63
2022-10-24T21:36:37.831Z,5.90
2022-10-24T21:39:04.569Z,7.10
2022-10-24T21:41:31.234Z,3.83
2022-10-24T21:43:58.396Z,9.97
2022-10-24T21:46:29.083Z,3.97
2022-10-24T21:48:56.548Z,5.63
2022-10-24T21:51:24.616Z,7.33
2022-10-24T21:53:54.125Z,3.70
2022-10-24T21:56:23.166Z,2.97
2022-10-24T21:58:52.078Z,5.57
2022-10-24T22:01:21.233Z,6.23
2022-10-24T22:03:48.418Z,2.67
2022-10-24T22:06:17.613Z,4.10
2022-10-24T22:08:45.832Z,6.67
2022-10-24T22:11:18.645Z,3.73
2022-10-24T22:13:46.324Z,4.40
2022-10-24T22:16:13.975Z,4.87
2022-10-24T22:18:40.979Z,9.67
2022-10-24T22:21:09.918Z,5.23
2022-10-24T22:23:37.094Z,6.50
2022-10-24T22:26:04.684Z,4.00
2022-10-24T22:28:31.303Z,11.60
2022-10-24T22:30:58.379Z,4.20
2022-10-24T22:33:35.619Z,9.80
2022-10-24T22:36:23.879Z,5.83
2022-10-24T22:38:54.567Z,6.23
2022-10-24T22:41:22.657Z,4.50
2022-10-24T22:43:50.316Z,6.40
2022-10-24T22:46:45.049Z,4.20
2022-10-24T22:49:39.434Z,7.73
2022-10-24T22:52:06.389Z,10.63
2022-10-24T22:54:35.642Z,9.33
2022-10-24T22:57:04.130Z,10.07
2022-10-24T22:59:31.570Z,4.13
2022-10-24T23:02:07.491Z,4.40
2022-10-24T23:04:46.403Z,7.67
2022-10-24T23:07:27.714Z,3.13
2022-10-24T23:09:54.797Z,4.97
2022-10-24T23:12:22.714Z,5.10
2022-10-24T23:14:50.661Z,9.90
2022-10-24T23:17:27.156Z,8.17
2022-10-24T23:19:55.096Z,4.93
2022-10-24T23:22:30.303Z,3.30
2022-10-24T23:24:59.418Z,4.70
2022-10-24T23:27:35.247Z,3.60
2022-10-24T23:30:25.025Z,5.53
2022-10-24T23:32:51.890Z,6.53
2022-10-24T23:35:19.685Z,3.43
2022-10-24T23:37:48.822Z,4.87
2022-10-24T23:40:29.902Z,3.20
2022-10-24T23:42:57.274Z,2.37
2022-10-24T23:45:27.766Z,1.63
2022-10-24T23:48:26.054Z,1.70
2022-10-24T23:51:11.418Z,1.87
2022-10-24T23:53:48.864Z,4.27
2022-10-24T23:56:17.318Z,2.33
2022-10-24T23:58:44.247Z,3.50
